createdAt,value
2022-08-24T00:02:18.382Z,21.57
2022-08-24T00:04:47.053Z,21.58
2022-08-24T00:07:25.518Z,21.58
2022-08-24T00:09:54.082Z,21.55
2022-08-24T00:12:20.394Z,21.34
2022-08-24T00:14:46.696Z,21.38
2022-08-24T00:17:15.633Z,21.37
2022-08-24T00:19:42.397Z,21.39
2022-08-24T00:22:09.327Z,21.35
2022-08-24T00:24:35.555Z,21.33
2022-08-24T00:27:01.874Z,21.38
2022-08-24T00:29:28.171Z,21.40
2022-08-24T00:31:54.546Z,21.40
2022-08-24T00:34:20.960Z,21.43
2022-08-24T00:36:47.306Z,21.44
2022-08-24T00:39:13.603Z,21.45
2022-08-24T00:41:39.931Z,21.47
2022-08-24T00:44:06.241Z,21.49
2022-08-24T00:46:32.560Z,21.47
2022-08-24T00:48:59.468Z,21.44
2022-08-24T00:51:25.787Z,21.32
2022-08-24T00:53:52.224Z,21.28
2022-08-24T00:56:18.525Z,21.32
2022-08-24T00:58:44.819Z,21.34
2022-08-24T01:01:12.397Z,21.36
2022-08-24T01:03:38.760Z,21.35
2022-08-24T01:06:05.084Z,21.36
2022-08-24T01:08:31.397Z,21.34
2022-08-24T01:10:57.721Z,21.32
2022-08-24T01:13:25.268Z,21.32
2022-08-24T01:15:51.606Z,21.24
2022-08-24T01:18:36.453Z,21.26
2022-08-24T01:21:02.759Z,21.22
2022-08-24T01:23:36.219Z,21.21
2022-08-24T01:26:03.200Z,21.25
2022-08-24T01:28:30.148Z,21.30
2022-08-24T01:30:58.528Z,21.30
2022-08-24T01:33:24.791Z,21.28
2022-08-24T01:35:51.092Z,21.27
2022-08-24T01:38:17.394Z,21.31
2022-08-24T01:40:43.692Z,21.28
2022-08-24T01:43:09.975Z,21.26
2022-08-24T01:45:36.289Z,21.13
2022-08-24T01:48:03.042Z,21.15
2022-08-24T01:50:29.488Z,21.16
2022-08-24T01:53:04.824Z,21.17
2022-08-24T01:55:40.892Z,21.19
2022-08-24T01:58:07.203Z,21.19
2022-08-24T02:00:33.516Z,21.16
2022-08-24T02:02:59.959Z,21.12
2022-08-24T02:05:26.345Z,21.10
2022-08-24T02:07:52.663Z,21.11
2022-08-24T02:10:18.985Z,21.06
2022-08-24T02:12:45.307Z,21.11
2022-08-24T02:15:11.619Z,21.14
2022-08-24T02:17:37.950Z,21.14
2022-08-24T02:20:04.270Z,21.11
2022-08-24T02:22:30.561Z,21.08
2022-08-24T02:24:56.895Z,20.70
2022-08-24T02:27:23.183Z,20.82
2022-08-24T02:29:49.484Z,20.84
2022-08-24T02:32:15.931Z,20.88
2022-08-24T02:34:44.037Z,20.86
2022-08-24T02:37:10.333Z,20.83
2022-08-24T02:39:36.671Z,20.79
2022-08-24T02:42:02.964Z,20.75
2022-08-24T02:44:29.369Z,20.65
2022-08-24T02:46:55.670Z,20.66
2022-08-24T02:49:23.128Z,20.68
2022-08-24T02:51:49.432Z,20.70
2022-08-24T02:54:18.075Z,20.69
2022-08-24T02:56:44.785Z,20.64
2022-08-24T02:59:11.524Z,20.64
2022-08-24T03:01:37.885Z,20.63
2022-08-24T03:04:04.275Z,20.59
2022-08-24T03:06:30.571Z,20.59
2022-08-24T03:08:57.041Z,20.45
2022-08-24T03:11:27.030Z,20.50
2022-08-24T03:13:55.339Z,20.55
2022-08-24T03:16:21.654Z,20.56
2022-08-24T03:18:47.952Z,20.59
2022-08-24T03:21:14.945Z,20.57
2022-08-24T03:23:41.240Z,20.59
2022-08-24T03:26:07.555Z,20.52
2022-08-24T03:28:34.027Z,20.46
2022-08-24T03:31:00.438Z,20.53
2022-08-24T03:33:27.036Z,20.58
2022-08-24T03:35:53.376Z,20.57
2022-08-24T03:38:21.203Z,20.60
2022-08-24T03:40:47.495Z,20.45
2022-08-24T03:43:33.748Z,20.42
2022-08-24T03:46:01.792Z,20.42
2022-08-24T03:48:28.602Z,20.50
2022-08-24T03:50:54.909Z,20.55
2022-08-24T03:53:21.210Z,20.58
2022-08-24T03:55:47.552Z,20.63
2022-08-24T03:58:13.852Z,20.60
2022-08-24T04:00:42.588Z,20.65
2022-08-24T04:03:08.887Z,20.67
2022-08-24T04:05:35.321Z,20.67
2022-08-24T04:08:01.653Z,20.67
2022-08-24T04:10:28.700Z,20.67
2022-08-24T04:12:55.078Z,20.68
2022-08-24T04:15:24.403Z,20.68
2022-08-24T04:17:50.729Z,20.68
2022-08-24T04:20:17.036Z,20.70
2022-08-24T04:22:44.130Z,20.72
2022-08-24T04:25:12.105Z,20.71
2022-08-24T04:27:38.426Z,20.76
2022-08-24T04:30:04.849Z,20.77
2022-08-24T04:32:31.547Z,20.77
2022-08-24T04:34:59.132Z,20.79
2022-08-24T04:37:28.103Z,20.80
2022-08-24T04:39:55.682Z,20.82
2022-08-24T04:42:22.039Z,20.86
2022-08-24T04:44:48.335Z,20.90
2022-08-24T04:47:14.627Z,20.71
2022-08-24T04:49:40.936Z,20.87
2022-08-24T04:52:09.584Z,20.95
2022-08-24T04:54:35.903Z,20.96
2022-08-24T04:57:02.206Z,21.04
2022-08-24T04:59:28.497Z,21.14
2022-08-24T05:01:54.862Z,21.17
2022-08-24T05:04:21.200Z,21.32
2022-08-24T05:06:47.512Z,21.45
2022-08-24T05:09:19.564Z,21.51
2022-08-24T05:11:49.759Z,21.58
2022-08-24T05:14:16.582Z,21.53
2022-08-24T05:16:45.756Z,21.57
2022-08-24T05:19:19.549Z,21.59
2022-08-24T05:21:46.282Z,21.63
2022-08-24T05:24:12.576Z,21.50
2022-08-24T05:26:39.455Z,21.68
2022-08-24T05:29:06.342Z,21.67
2022-08-24T05:31:32.705Z,21.56
2022-08-24T05:33:59.058Z,21.47
2022-08-24T05:36:25.422Z,21.11
2022-08-24T05:38:51.828Z,21.46
2022-08-24T05:41:18.140Z,21.10
2022-08-24T05:43:44.508Z,21.47
2022-08-24T05:46:11.897Z,21.14
2022-08-24T05:48:38.317Z,21.35
2022-08-24T05:51:04.628Z,21.33
2022-08-24T05:53:31.720Z,21.25
2022-08-24T05:55:58.103Z,21.37
2022-08-24T05:58:30.874Z,21.52
2022-08-24T06:00:57.696Z,21.52
2022-08-24T06:03:24.009Z,21.59
2022-08-24T06:05:50.327Z,21.68
2022-08-24T06:08:16.643Z,21.78
2022-08-24T06:10:43.362Z,21.73
2022-08-24T06:13:09.687Z,21.54
2022-08-24T06:15:36.000Z,21.52
2022-08-24T06:18:02.322Z,21.68
2022-08-24T06:20:28.636Z,21.78
2022-08-24T06:22:54.949Z,21.78
2022-08-24T06:25:40.024Z,21.96
2022-08-24T06:28:06.333Z,21.87
2022-08-24T06:30:32.763Z,21.84
2022-08-24T06:32:59.063Z,21.79
2022-08-24T06:35:28.464Z,22.05
2022-08-24T06:37:55.715Z,22.31
2022-08-24T06:40:24.631Z,22.20
2022-08-24T06:42:51.058Z,22.02
2022-08-24T06:45:22.450Z,22.28
2022-08-24T06:47:48.752Z,22.41
2022-08-24T06:50:15.082Z,22.66
2022-08-24T06:52:41.391Z,22.14
2022-08-24T06:55:09.615Z,22.28
2022-08-24T06:57:35.919Z,22.56
2022-08-24T07:00:02.254Z,21.94
2022-08-24T07:02:28.644Z,21.81
2022-08-24T07:04:55.058Z,22.37
2022-08-24T07:07:21.602Z,22.45
2022-08-24T07:09:47.907Z,22.70
2022-08-24T07:12:14.218Z,22.90
2022-08-24T07:14:40.543Z,23.02
2022-08-24T07:17:06.851Z,23.08
2022-08-24T07:19:33.363Z,23.06
2022-08-24T07:21:59.668Z,22.82
2022-08-24T07:24:26.027Z,22.88
2022-08-24T07:26:52.892Z,22.75
2022-08-24T07:29:45.848Z,22.92
2022-08-24T07:32:05.658Z,23.11
2022-08-24T07:34:32.761Z,23.21
2022-08-24T07:37:00.426Z,23.21
2022-08-24T07:39:26.724Z,23.30
2022-08-24T07:44:39.313Z,23.25
2022-08-24T07:47:27.118Z,23.37
2022-08-24T07:49:51.915Z,23.34
2022-08-24T07:52:18.214Z,23.25
2022-08-24T07:54:44.529Z,23.06
2022-08-24T07:57:10.818Z,23.46
2022-08-24T07:59:37.118Z,23.79
2022-08-24T08:02:03.445Z,24.00
2022-08-24T08:04:29.755Z,24.09
2022-08-24T08:09:27.434Z,23.65
2022-08-24T08:11:53.733Z,23.64
2022-08-24T08:14:20.040Z,23.80
2022-08-24T08:16:46.792Z,23.88
2022-08-24T08:19:13.084Z,24.24
2022-08-24T08:21:57.975Z,24.04
2022-08-24T08:24:24.277Z,24.16
2022-08-24T08:26:51.051Z,23.96
2022-08-24T08:29:18.277Z,24.30
2022-08-24T08:31:44.573Z,24.61
2022-08-24T08:34:11.105Z,24.39
2022-08-24T08:36:39.593Z,24.06
2022-08-24T08:39:06.021Z,24.38
2022-08-24T08:41:32.329Z,24.45
2022-08-24T08:44:01.008Z,24.42
2022-08-24T08:46:27.360Z,24.38
2022-08-24T08:48:53.720Z,24.44
2022-08-24T08:51:20.061Z,23.95
2022-08-24T08:53:47.465Z,24.14
2022-08-24T08:56:13.982Z,24.08
2022-08-24T08:58:40.292Z,24.34
2022-08-24T09:01:13.485Z,24.65
2022-08-24T09:03:39.784Z,24.78
2022-08-24T09:06:06.114Z,24.86
2022-08-24T09:08:32.432Z,25.26
2022-08-24T09:10:58.724Z,24.83
2022-08-24T09:13:25.054Z,25.29
2022-08-24T09:15:51.379Z,25.91
2022-08-24T09:18:24.791Z,26.20
2022-08-24T09:20:51.137Z,26.27
2022-08-24T09:23:17.442Z,26.27
2022-08-24T09:25:43.744Z,26.51
2022-08-24T09:28:10.317Z,26.76
2022-08-24T09:30:36.867Z,26.75
2022-08-24T09:33:03.386Z,26.58
2022-08-24T09:35:31.822Z,25.49
2022-08-24T09:37:58.190Z,25.93
2022-08-24T09:40:24.598Z,26.06
2022-08-24T09:42:50.947Z,24.92
2022-08-24T09:45:17.245Z,24.83
2022-08-24T09:47:43.580Z,25.55
2022-08-24T09:50:09.919Z,26.06
2022-08-24T09:52:37.389Z,26.24
2022-08-24T09:55:04.824Z,26.52
2022-08-24T09:57:50.220Z,26.44
2022-08-24T10:00:17.660Z,26.67
2022-08-24T10:02:44.057Z,26.90
2022-08-24T10:05:10.667Z,26.63
2022-08-24T10:07:37.053Z,26.52
2022-08-24T10:10:03.420Z,26.10
2022-08-24T10:12:29.731Z,26.64
2022-08-24T10:14:56.295Z,26.69
2022-08-24T10:17:22.783Z,27.08
2022-08-24T10:19:49.200Z,27.07
2022-08-24T10:22:15.501Z,26.09
2022-08-24T10:24:43.507Z,26.88
2022-08-24T10:27:09.901Z,27.33
2022-08-24T10:29:36.927Z,27.59
2022-08-24T10:32:03.775Z,27.84
2022-08-24T10:34:30.180Z,27.96
2022-08-24T10:36:56.517Z,27.05
2022-08-24T10:39:41.207Z,27.18
2022-08-24T10:42:07.557Z,26.17
2022-08-24T10:44:37.030Z,26.70
2022-08-24T10:47:03.336Z,27.03
2022-08-24T10:49:30.415Z,26.65
2022-08-24T10:51:56.711Z,27.00
2022-08-24T10:54:23.184Z,26.95
2022-08-24T10:56:49.483Z,27.07
2022-08-24T10:59:15.781Z,27.07
2022-08-24T11:01:42.133Z,27.14
2022-08-24T11:04:08.676Z,26.67
2022-08-24T11:06:34.979Z,27.03
2022-08-24T11:09:01.281Z,26.99
2022-08-24T11:11:27.596Z,26.94
2022-08-24T11:13:53.936Z,27.17
2022-08-24T11:16:20.292Z,27.02
2022-08-24T11:18:46.645Z,26.86
2022-08-24T11:21:12.944Z,27.10
2022-08-24T11:23:39.265Z,27.22
2022-08-24T11:26:05.558Z,26.76
2022-08-24T11:28:32.038Z,25.98
2022-08-24T11:30:58.331Z,26.36
2022-08-24T11:33:24.648Z,25.71
2022-08-24T11:35:50.935Z,25.71
2022-08-24T11:38:17.340Z,26.08
2022-08-24T11:40:43.652Z,27.00
2022-08-24T11:43:09.966Z,26.03
2022-08-24T11:45:36.264Z,26.73
2022-08-24T11:48:03.525Z,27.50
2022-08-24T11:50:31.737Z,27.75
2022-08-24T11:52:58.070Z,27.58
2022-08-24T11:55:24.600Z,26.96
2022-08-24T11:57:50.965Z,27.08
2022-08-24T12:00:18.661Z,27.42
2022-08-24T12:02:45.220Z,27.64
2022-08-24T12:05:14.317Z,27.47
2022-08-24T12:07:42.920Z,27.55
2022-08-24T12:10:09.473Z,27.35
2022-08-24T12:12:35.779Z,26.76
2022-08-24T12:15:02.226Z,27.39
2022-08-24T12:17:28.534Z,26.99
2022-08-24T12:19:54.872Z,27.04
2022-08-24T12:22:21.247Z,27.66
2022-08-24T12:24:47.608Z,27.88
2022-08-24T12:27:14.013Z,27.58
2022-08-24T12:29:40.311Z,27.76
2022-08-24T12:32:06.688Z,27.95
2022-08-24T12:34:33.007Z,27.96
2022-08-24T12:36:59.318Z,28.16
2022-08-24T12:39:25.618Z,28.16
2022-08-24T12:41:51.919Z,28.19
2022-08-24T12:44:18.254Z,27.67
2022-08-24T12:46:44.827Z,27.27
2022-08-24T12:49:11.202Z,27.40
2022-08-24T12:51:37.517Z,27.58
2022-08-24T12:54:04.038Z,28.02
2022-08-24T12:56:30.351Z,28.04
2022-08-24T12:58:56.652Z,28.19
2022-08-24T13:01:25.593Z,27.92
2022-08-24T13:03:55.962Z,28.30
2022-08-24T13:06:25.735Z,28.26
2022-08-24T13:08:52.932Z,28.66
2022-08-24T13:11:19.234Z,28.68
2022-08-24T13:13:45.567Z,28.52
2022-08-24T13:16:11.961Z,28.94
2022-08-24T13:18:38.331Z,28.59
2022-08-24T13:21:04.643Z,28.97
2022-08-24T13:23:31.111Z,28.94
2022-08-24T13:25:57.446Z,28.16
2022-08-24T13:28:23.754Z,28.73
2022-08-24T13:30:50.127Z,28.35
2022-08-24T13:33:17.679Z,28.97
2022-08-24T13:35:43.971Z,28.82
2022-08-24T13:38:11.793Z,28.68
2022-08-24T13:40:38.450Z,28.65
2022-08-24T13:43:04.728Z,28.81
2022-08-24T13:45:31.517Z,29.06
2022-08-24T13:47:57.754Z,29.09
2022-08-24T13:50:24.111Z,28.29
2022-08-24T13:52:50.407Z,28.44
2022-08-24T13:55:16.742Z,28.86
2022-08-24T13:57:43.092Z,28.01
2022-08-24T14:00:09.394Z,28.28
2022-08-24T14:02:39.005Z,28.45
2022-08-24T14:05:05.332Z,28.57
2022-08-24T14:07:31.677Z,28.18
2022-08-24T14:09:58.741Z,28.73
2022-08-24T14:12:25.129Z,28.20
2022-08-24T14:14:51.437Z,28.18
2022-08-24T14:17:36.712Z,28.55
2022-08-24T14:20:03.409Z,28.52
2022-08-24T14:22:29.738Z,27.92
2022-08-24T14:24:56.040Z,28.47
2022-08-24T14:27:22.348Z,28.60
2022-08-24T14:29:48.780Z,28.51
2022-08-24T14:32:15.081Z,28.10
2022-08-24T14:34:41.744Z,28.26
2022-08-24T14:37:07.996Z,28.46
2022-08-24T14:39:34.298Z,28.34
2022-08-24T14:42:00.901Z,28.21
2022-08-24T14:44:27.201Z,28.38
2022-08-24T14:46:54.333Z,28.32
2022-08-24T14:49:20.699Z,28.45
2022-08-24T14:51:46.995Z,28.55
2022-08-24T14:54:13.321Z,28.12
2022-08-24T14:56:39.730Z,28.23
2022-08-24T14:59:06.031Z,27.99
2022-08-24T15:01:32.384Z,28.15
2022-08-24T15:03:58.767Z,28.26
2022-08-24T15:06:27.753Z,28.28
2022-08-24T15:08:55.721Z,28.27
2022-08-24T15:11:21.939Z,28.20
2022-08-24T15:13:48.244Z,28.08
2022-08-24T15:16:14.718Z,28.01
2022-08-24T15:18:41.091Z,28.11
2022-08-24T15:21:07.479Z,27.59
2022-08-24T15:23:33.808Z,27.88
2022-08-24T15:26:00.120Z,27.90
2022-08-24T15:28:28.958Z,27.85
2022-08-24T15:30:55.353Z,27.92
2022-08-24T15:33:21.751Z,28.20
2022-08-24T15:35:48.048Z,28.08
2022-08-24T15:38:14.554Z,28.22
2022-08-24T15:40:46.040Z,28.22
2022-08-24T15:43:12.537Z,28.16
2022-08-24T15:45:38.849Z,28.27
2022-08-24T15:48:05.545Z,28.35
2022-08-24T15:50:32.100Z,27.47
2022-08-24T15:52:58.396Z,27.90
2022-08-24T15:55:24.706Z,28.20
2022-08-24T15:57:50.995Z,28.32
2022-08-24T16:00:38.855Z,28.53
2022-08-24T16:03:07.752Z,28.47
2022-08-24T16:05:34.331Z,28.14
2022-08-24T16:08:00.638Z,28.40
2022-08-24T16:10:26.992Z,28.19
2022-08-24T16:12:54.889Z,27.92
2022-08-24T16:15:21.231Z,28.28
2022-08-24T16:17:51.061Z,28.17
2022-08-24T16:20:17.872Z,28.06
2022-08-24T16:22:45.715Z,27.98
2022-08-24T16:25:22.897Z,28.05
2022-08-24T16:27:49.195Z,28.05
2022-08-24T16:30:16.617Z,27.78
2022-08-24T16:32:53.527Z,27.61
2022-08-24T16:35:20.566Z,27.59
2022-08-24T16:37:46.819Z,27.58
2022-08-24T16:40:14.125Z,27.82
2022-08-24T16:42:40.650Z,27.71
2022-08-24T16:45:06.958Z,27.91
2022-08-24T16:47:33.267Z,27.90
2022-08-24T16:49:59.572Z,27.66
2022-08-24T16:52:25.872Z,27.67
2022-08-24T16:54:52.208Z,27.70
2022-08-24T16:57:18.545Z,27.74
2022-08-24T16:59:44.888Z,27.80
2022-08-24T17:02:11.640Z,27.57
2022-08-24T17:04:37.888Z,27.65
2022-08-24T17:07:04.226Z,27.71
2022-08-24T17:09:31.162Z,27.75
2022-08-24T17:11:57.478Z,27.59
2022-08-24T17:14:24.085Z,27.27
2022-08-24T17:16:50.492Z,27.43
2022-08-24T17:19:16.972Z,27.22
2022-08-24T17:21:43.375Z,27.23
2022-08-24T17:24:09.670Z,27.23
2022-08-24T17:26:36.246Z,27.33
2022-08-24T17:29:02.550Z,27.03
2022-08-24T17:31:30.899Z,27.23
2022-08-24T17:33:57.475Z,27.22
2022-08-24T17:36:23.903Z,27.24
2022-08-24T17:38:54.713Z,27.27
2022-08-24T17:41:21.765Z,27.21
2022-08-24T17:43:48.110Z,27.17
2022-08-24T17:46:14.529Z,26.91
2022-08-24T17:48:40.863Z,26.90
2022-08-24T17:51:07.308Z,26.98
2022-08-24T17:53:33.699Z,26.97
2022-08-24T17:56:00.061Z,26.99
2022-08-24T17:58:26.359Z,26.97
2022-08-24T18:00:52.758Z,26.97
2022-08-24T18:03:19.064Z,26.93
2022-08-24T18:05:45.762Z,26.88
2022-08-24T18:08:12.077Z,26.84
2022-08-24T18:10:38.372Z,26.75
2022-08-24T18:13:04.827Z,26.66
2022-08-24T18:15:35.405Z,26.57
2022-08-24T18:18:02.601Z,26.48
2022-08-24T18:20:29.864Z,26.43
2022-08-24T18:22:57.552Z,26.36
2022-08-24T18:25:24.535Z,26.27
2022-08-24T18:27:50.834Z,26.14
2022-08-24T18:30:17.133Z,26.04
2022-08-24T18:32:44.559Z,25.90
2022-08-24T18:35:10.853Z,25.96
2022-08-24T18:37:37.396Z,25.85
2022-08-24T18:40:03.709Z,25.80
2022-08-24T18:42:32.027Z,25.75
2022-08-24T18:44:58.343Z,25.70
2022-08-24T18:47:25.245Z,25.67
2022-08-24T18:49:51.569Z,25.59
2022-08-24T18:52:18.980Z,25.53
2022-08-24T18:54:46.590Z,25.39
2022-08-24T18:57:12.889Z,25.38
2022-08-24T18:59:40.803Z,25.27
2022-08-24T19:02:26.202Z,25.26
2022-08-24T19:04:52.672Z,25.22
2022-08-24T19:07:18.967Z,25.16
2022-08-24T19:09:45.257Z,25.09
2022-08-24T19:12:11.583Z,25.03
2022-08-24T19:14:37.916Z,24.98
2022-08-24T19:17:04.229Z,24.77
2022-08-24T19:19:30.529Z,24.71
2022-08-24T19:21:56.819Z,24.80
2022-08-24T19:24:23.114Z,24.67
2022-08-24T19:26:49.415Z,24.75
2022-08-24T19:29:21.477Z,24.70
2022-08-24T19:31:59.750Z,24.39
2022-08-24T19:34:26.090Z,24.47
2022-08-24T19:36:55.970Z,24.41
2022-08-24T19:39:22.925Z,24.26
2022-08-24T19:41:57.915Z,24.20
2022-08-24T19:44:47.373Z,24.19
2022-08-24T19:47:18.227Z,24.30
2022-08-24T19:49:45.496Z,24.28
2022-08-24T19:52:11.790Z,24.21
2022-08-24T19:54:38.153Z,24.15
2022-08-24T19:57:04.473Z,24.13
2022-08-24T19:59:30.780Z,24.14
2022-08-24T20:02:00.969Z,24.16
2022-08-24T20:04:27.292Z,24.14
2022-08-24T20:06:53.679Z,24.11
2022-08-24T20:09:23.461Z,24.06
2022-08-24T20:11:50.081Z,24.06
2022-08-24T20:14:16.416Z,23.95
2022-08-24T20:16:42.754Z,23.83
2022-08-24T20:19:09.099Z,23.84
2022-08-24T20:21:35.765Z,23.74
2022-08-24T20:24:02.390Z,23.63
2022-08-24T20:26:28.705Z,23.45
2022-08-24T20:28:55.040Z,23.50
2022-08-24T20:31:27.433Z,23.45
2022-08-24T20:33:55.004Z,23.56
2022-08-24T20:36:21.302Z,23.42
2022-08-24T20:38:47.772Z,23.50
2022-08-24T20:41:15.283Z,23.49
2022-08-24T20:43:41.594Z,23.46
2022-08-24T20:46:07.947Z,23.49
2022-08-24T20:48:34.284Z,23.51
2022-08-24T20:51:00.620Z,23.48
2022-08-24T20:53:26.980Z,23.49
2022-08-24T20:55:53.316Z,23.47
2022-08-24T20:58:19.651Z,23.45
2022-08-24T21:00:46.344Z,23.40
2022-08-24T21:03:16.009Z,23.40
2022-08-24T21:05:42.303Z,23.35
2022-08-24T21:08:08.633Z,23.05
2022-08-24T21:10:34.945Z,22.95
2022-08-24T21:13:01.445Z,23.10
2022-08-24T21:15:27.794Z,23.12
2022-08-24T21:17:54.098Z,23.12
2022-08-24T21:20:20.407Z,23.12
2022-08-24T21:22:46.728Z,23.11
2022-08-24T21:25:13.810Z,23.09
2022-08-24T21:27:40.109Z,23.05
2022-08-24T21:30:06.416Z,23.03
2022-08-24T21:32:51.351Z,23.02
2022-08-24T21:35:17.708Z,22.97
2022-08-24T21:37:44.012Z,22.93
2022-08-24T21:40:10.896Z,22.87
2022-08-24T21:42:37.253Z,22.86
2022-08-24T21:45:04.321Z,22.85
2022-08-24T21:47:30.687Z,22.83
2022-08-24T21:49:57.024Z,22.81
2022-08-24T21:52:24.163Z,22.76
2022-08-24T21:54:50.521Z,22.71
2022-08-24T21:57:16.826Z,22.65
2022-08-24T21:59:44.222Z,22.65
2022-08-24T22:02:10.761Z,22.63
2022-08-24T22:04:39.750Z,22.62
2022-08-24T22:07:06.048Z,22.58
2022-08-24T22:09:32.364Z,22.51
2022-08-24T22:11:59.843Z,22.38
2022-08-24T22:14:27.010Z,22.35
2022-08-24T22:16:53.315Z,22.35
2022-08-24T22:19:19.615Z,22.35
2022-08-24T22:21:47.842Z,22.38
2022-08-24T22:24:14.432Z,22.40
2022-08-24T22:26:40.745Z,22.38
2022-08-24T22:29:07.572Z,22.35
2022-08-24T22:31:33.938Z,22.27
2022-08-24T22:34:00.569Z,22.26
2022-08-24T22:36:27.261Z,22.23
2022-08-24T22:38:53.614Z,22.25
2022-08-24T22:41:21.720Z,22.23
2022-08-24T22:44:06.641Z,22.18
2022-08-24T22:46:32.981Z,22.14
2022-08-24T22:48:59.319Z,22.12
2022-08-24T22:51:25.645Z,22.09
2022-08-24T22:53:51.987Z,22.07
2022-08-24T22:56:18.297Z,22.06
2022-08-24T22:58:44.596Z,22.03
2022-08-24T23:01:10.929Z,21.98
2022-08-24T23:03:37.328Z,21.95
2022-08-24T23:06:03.671Z,21.97
2022-08-24T23:08:29.978Z,21.96
2022-08-24T23:10:57.352Z,21.91
2022-08-24T23:13:28.138Z,21.88
2022-08-24T23:15:55.040Z,21.87
2022-08-24T23:18:40.157Z,21.87
2022-08-24T23:21:06.467Z,21.84
2022-08-24T23:23:32.755Z,21.69
2022-08-24T23:26:00.283Z,21.71
2022-08-24T23:28:26.584Z,21.66
2022-08-24T23:30:52.945Z,21.60
2022-08-24T23:33:19.245Z,21.44
2022-08-24T23:35:45.565Z,21.51
2022-08-24T23:38:11.951Z,21.60
2022-08-24T23:40:38.265Z,21.52
2022-08-24T23:43:04.580Z,21.54
2022-08-24T23:45:31.656Z,21.50
2022-08-24T23:47:58.395Z,21.54
2022-08-24T23:50:24.696Z,21.54
2022-08-24T23:52:50.993Z,21.46
2022-08-24T23:55:21.146Z,21.35
2022-08-24T23:57:48.377Z,21.38
